Time;durP1;ratioP1;P1;durP2;ratioP2;P2;SDS_P1;SDS_P2;PMS_P1;PMS_P2;Temp;Humidity;BMP_temperature;BMP_pressure;BME280_temperature;BME280_humidity;BME280_pressure;Samples;Min_cycle;Max_cycle;Signal;HPM_P1;HPM_P2
2023/06/28 00:02:10;;;;;;;12.85;3.22;;;;;;;;;;4964297;28;20034;-95
2023/06/28 00:04:36;;;;;;;15.23;4.13;;;;;;;;;;4963161;28;20182;-96
2023/06/28 00:07:03;;;;;;;12.00;3.15;;;;;;;;;;4958511;28;20046;-95
2023/06/28 00:09:29;;;;;;;16.42;3.50;;;;;;;;;;4962600;28;20031;-95
2023/06/28 00:11:55;;;;;;;9.63;3.13;;;;;;;;;;4963340;28;20081;-95
2023/06/28 00:14:21;;;;;;;20.85;3.53;;;;;;;;;;4956544;28;20061;-94
2023/06/28 00:16:47;;;;;;;11.90;2.95;;;;;;;;;;4962147;28;20425;-95
2023/06/28 00:19:13;;;;;;;11.93;3.25;;;;;;;;;;4961054;28;20053;-95
2023/06/28 00:21:40;;;;;;;11.00;3.30;;;;;;;;;;4967262;28;20498;-95
2023/06/28 00:24:06;;;;;;;20.25;3.78;;;;;;;;;;4956815;28;20073;-96
2023/06/28 00:26:32;;;;;;;8.30;3.45;;;;;;;;;;4952544;28;20058;-95
2023/06/28 00:28:58;;;;;;;12.65;3.70;;;;;;;;;;4958594;28;21515;-95
2023/06/28 00:31:25;;;;;;;10.43;3.67;;;;;;;;;;4970083;28;20118;-96
2023/06/28 00:33:51;;;;;;;9.85;3.20;;;;;;;;;;4970255;28;20045;-95
2023/06/28 00:36:17;;;;;;;6.13;2.92;;;;;;;;;;4970612;28;20043;-96
2023/06/28 00:38:43;;;;;;;9.80;3.33;;;;;;;;;;4970274;28;20548;-95
2023/06/28 00:41:09;;;;;;;11.20;3.30;;;;;;;;;;4957635;28;20155;-96
2023/06/28 00:43:36;;;;;;;13.68;3.78;;;;;;;;;;4952837;28;20486;-95
2023/06/28 00:46:22;;;;;;;15.45;3.45;;;;;;;;;;4953497;28;20118;-96
2023/06/28 00:48:51;;;;;;;11.30;3.47;;;;;;;;;;4966955;28;20034;-96
2023/06/28 00:51:18;;;;;;;10.75;2.83;;;;;;;;;;4946085;28;21193;-95
2023/06/28 00:53:44;;;;;;;12.20;3.85;;;;;;;;;;4951955;28;20041;-95
2023/06/28 00:56:16;;;;;;;9.57;2.88;;;;;;;;;;4957049;28;20124;-95
2023/06/28 00:58:42;;;;;;;8.35;3.00;;;;;;;;;;4983140;28;20030;-94
2023/06/28 01:01:10;;;;;;;8.85;3.38;;;;;;;;;;4976944;28;20093;-95
2023/06/28 01:03:36;;;;;;;14.00;3.75;;;;;;;;;;4950376;28;20082;-95
2023/06/28 01:06:03;;;;;;;9.23;3.70;;;;;;;;;;4957268;28;20255;-95
2023/06/28 01:08:30;;;;;;;20.13;4.45;;;;;;;;;;4958663;28;20034;-95
2023/06/28 01:11:00;;;;;;;11.05;2.80;;;;;;;;;;4972548;28;20070;-95
2023/06/28 01:13:26;;;;;;;8.13;3.45;;;;;;;;;;4979673;28;20633;-95
2023/06/28 01:15:53;;;;;;;9.45;3.35;;;;;;;;;;4954439;28;20043;-95
2023/06/28 01:18:21;;;;;;;11.20;4.07;;;;;;;;;;4965300;28;20117;-95
2023/06/28 01:20:49;;;;;;;15.95;3.05;;;;;;;;;;4985016;28;20061;-95
2023/06/28 01:23:16;;;;;;;8.20;2.80;;;;;;;;;;4989240;28;20034;-94
2023/06/28 01:25:42;;;;;;;9.95;3.63;;;;;;;;;;4957057;28;20101;-94
2023/06/28 01:28:10;;;;;;;12.90;3.50;;;;;;;;;;4951167;28;20128;-94
2023/06/28 01:30:37;;;;;;;13.00;3.50;;;;;;;;;;4970202;28;20030;-94
2023/06/28 01:33:03;;;;;;;13.65;3.55;;;;;;;;;;4967185;28;20552;-94
2023/06/28 01:35:31;;;;;;;13.52;3.17;;;;;;;;;;4986630;28;20041;-95
2023/06/28 01:37:58;;;;;;;14.05;3.55;;;;;;;;;;4957302;28;20034;-95
2023/06/28 01:40:24;;;;;;;9.85;3.15;;;;;;;;;;4950607;28;20049;-93
2023/06/28 01:42:58;;;;;;;11.85;3.70;;;;;;;;;;4955061;28;20528;-92
2023/06/28 01:45:24;;;;;;;11.65;3.25;;;;;;;;;;4967697;28;20039;-94
2023/06/28 01:47:50;;;;;;;10.88;3.05;;;;;;;;;;4935829;28;20042;-95
2023/06/28 01:50:19;;;;;;;10.80;3.58;;;;;;;;;;4951524;28;20291;-95
2023/06/28 01:52:45;;;;;;;6.45;2.55;;;;;;;;;;4949599;28;20019;-95
2023/06/28 01:55:12;;;;;;;10.48;4.07;;;;;;;;;;4937350;28;20078;-95
2023/06/28 01:57:38;;;;;;;6.38;3.03;;;;;;;;;;4942516;28;20038;-95
2023/06/28 02:00:08;;;;;;;9.00;3.58;;;;;;;;;;4955168;28;20203;-95
2023/06/28 02:02:35;;;;;;;10.02;3.20;;;;;;;;;;4955000;28;20443;-94
2023/06/28 02:05:01;;;;;;;9.52;3.83;;;;;;;;;;4946246;28;20031;-95
2023/06/28 02:07:27;;;;;;;8.32;3.30;;;;;;;;;;4966754;28;20117;-95
2023/06/28 02:09:54;;;;;;;11.68;3.78;;;;;;;;;;4968324;28;20032;-95
2023/06/28 02:12:21;;;;;;;7.55;2.88;;;;;;;;;;4958085;28;20035;-94
2023/06/28 02:14:51;;;;;;;9.32;2.63;;;;;;;;;;4950592;28;20090;-93
2023/06/28 02:17:20;;;;;;;14.05;3.67;;;;;;;;;;4961462;28;20427;-94
2023/06/28 02:19:50;;;;;;;7.50;3.20;;;;;;;;;;4954993;28;20034;-95
2023/06/28 02:22:26;;;;;;;9.93;3.08;;;;;;;;;;4949210;28;20035;-94
2023/06/28 02:24:55;;;;;;;14.38;3.53;;;;;;;;;;4967192;28;20169;-93
2023/06/28 02:27:22;;;;;;;14.15;3.35;;;;;;;;;;4955307;28;20073;-94
2023/06/28 02:29:51;;;;;;;6.82;3.13;;;;;;;;;;4957670;28;20041;-95
2023/06/28 02:32:17;;;;;;;11.35;3.03;;;;;;;;;;4969922;28;20349;-95
2023/06/28 02:34:44;;;;;;;10.57;3.95;;;;;;;;;;4937682;28;20035;-95
2023/06/28 02:37:10;;;;;;;8.85;4.25;;;;;;;;;;4955290;28;20117;-95
2023/06/28 02:39:39;;;;;;;7.57;2.60;;;;;;;;;;4946464;28;20142;-94
2023/06/28 02:42:06;;;;;;;14.82;3.63;;;;;;;;;;4965341;28;20043;-94
2023/06/28 02:44:35;;;;;;;11.45;3.50;;;;;;;;;;4951036;28;20378;-94
2023/06/28 02:47:01;;;;;;;14.25;3.85;;;;;;;;;;4961212;28;20030;-95
2023/06/28 02:49:27;;;;;;;11.75;3.30;;;;;;;;;;4951418;28;20065;-94
2023/06/28 02:51:54;;;;;;;14.45;3.78;;;;;;;;;;4970390;28;20066;-94
2023/06/28 02:54:20;;;;;;;11.55;3.30;;;;;;;;;;4937770;28;20454;-94
2023/06/28 02:56:46;;;;;;;13.75;3.60;;;;;;;;;;4945139;28;20175;-94
2023/06/28 02:59:16;;;;;;;11.88;4.35;;;;;;;;;;4962439;28;20035;-94
2023/06/28 03:01:42;;;;;;;15.13;4.00;;;;;;;;;;4959013;28;20033;-95
2023/06/28 03:04:08;;;;;;;13.40;4.43;;;;;;;;;;4945745;28;20110;-95
2023/06/28 03:06:36;;;;;;;13.82;4.10;;;;;;;;;;4958142;28;20030;-96
2023/06/28 03:09:04;;;;;;;15.15;4.05;;;;;;;;;;4968917;28;20694;-95
2023/06/28 03:11:31;;;;;;;16.15;4.25;;;;;;;;;;4954951;28;20042;-95
2023/06/28 03:13:57;;;;;;;14.43;3.72;;;;;;;;;;4966769;28;20034;-96
2023/06/28 03:16:25;;;;;;;8.75;3.83;;;;;;;;;;4954059;28;20121;-95
2023/06/28 03:18:51;;;;;;;11.57;4.40;;;;;;;;;;4940503;28;20045;-95
2023/06/28 03:21:17;;;;;;;11.48;3.72;;;;;;;;;;4951119;28;20078;-94
2023/06/28 03:23:44;;;;;;;10.93;3.63;;;;;;;;;;4952973;28;20031;-95
2023/06/28 03:26:10;;;;;;;9.80;3.60;;;;;;;;;;4937057;28;20035;-94
2023/06/28 03:28:42;;;;;;;13.18;4.03;;;;;;;;;;4941190;28;20109;-93
2023/06/28 03:33:54;;;;;;;13.10;4.28;;;;;;;;;;4949459;28;20057;-94
2023/06/28 03:36:20;;;;;;;14.88;4.47;;;;;;;;;;4939231;28;20094;-94
2023/06/28 03:38:46;;;;;;;9.27;3.75;;;;;;;;;;4934974;28;20114;-95
2023/06/28 03:41:13;;;;;;;7.07;3.83;;;;;;;;;;4963204;28;20734;-94
2023/06/28 03:43:39;;;;;;;11.02;4.20;;;;;;;;;;4957867;28;20109;-95
2023/06/28 03:46:05;;;;;;;8.68;3.78;;;;;;;;;;4956528;28;20038;-95
2023/06/28 03:48:31;;;;;;;10.23;3.65;;;;;;;;;;4955448;28;20041;-94
2023/06/28 03:50:58;;;;;;;10.88;3.35;;;;;;;;;;4969099;28;20096;-95
2023/06/28 03:53:24;;;;;;;6.55;3.03;;;;;;;;;;4959590;28;20065;-94
2023/06/28 03:55:50;;;;;;;8.45;3.75;;;;;;;;;;4964788;28;20084;-94
2023/06/28 03:58:16;;;;;;;9.65;2.85;;;;;;;;;;4953225;28;20049;-95
2023/06/28 04:00:48;;;;;;;7.82;3.13;;;;;;;;;;4959415;28;20085;-95
2023/06/28 04:03:15;;;;;;;9.20;3.13;;;;;;;;;;4954067;28;20037;-94
2023/06/28 04:05:44;;;;;;;10.68;3.15;;;;;;;;;;4978906;28;20046;-94
2023/06/28 04:08:11;;;;;;;6.88;3.08;;;;;;;;;;4958094;28;20044;-95
2023/06/28 04:10:40;;;;;;;7.85;2.97;;;;;;;;;;4991280;28;20494;-94
2023/06/28 04:13:06;;;;;;;9.70;2.90;;;;;;;;;;4955826;28;20096;-94
2023/06/28 04:15:34;;;;;;;15.60;3.47;;;;;;;;;;4959913;28;20124;-95
2023/06/28 04:18:01;;;;;;;10.50;3.47;;;;;;;;;;4972097;28;20405;-94
2023/06/28 04:20:30;;;;;;;5.15;2.42;;;;;;;;;;4953213;28;20037;-95
2023/06/28 04:22:56;;;;;;;10.77;2.58;;;;;;;;;;4985295;28;20034;-95
2023/06/28 04:25:29;;;;;;;6.10;2.38;;;;;;;;;;4951740;28;20042;-95
2023/06/28 04:28:04;;;;;;;5.85;2.30;;;;;;;;;;4946595;28;20557;-95
2023/06/28 04:30:31;;;;;;;4.40;2.33;;;;;;;;;;4962585;28;20042;-95
2023/06/28 04:32:57;;;;;;;6.80;2.35;;;;;;;;;;4974264;28;20035;-95
2023/06/28 04:35:24;;;;;;;5.85;2.38;;;;;;;;;;4955890;28;20026;-96
2023/06/28 04:37:50;;;;;;;3.83;2.22;;;;;;;;;;4977579;28;20323;-94
2023/06/28 04:40:17;;;;;;;4.75;2.47;;;;;;;;;;4959804;28;20133;-94
2023/06/28 04:42:50;;;;;;;5.90;2.17;;;;;;;;;;4969159;28;20047;-95
2023/06/28 04:45:16;;;;;;;3.78;2.03;;;;;;;;;;4980920;28;20015;-95
2023/06/28 04:47:43;;;;;;;4.45;2.05;;;;;;;;;;4986139;28;20035;-94
2023/06/28 04:50:10;;;;;;;5.35;2.28;;;;;;;;;;4953227;28;20034;-94
2023/06/28 04:52:36;;;;;;;5.65;2.30;;;;;;;;;;4951947;28;20041;-93
2023/06/28 04:55:03;;;;;;;6.25;2.47;;;;;;;;;;4983320;28;20038;-94
2023/06/28 04:57:29;;;;;;;4.82;2.38;;;;;;;;;;4954218;28;20061;-92
2023/06/28 04:59:57;;;;;;;6.18;2.47;;;;;;;;;;4968298;28;20052;-92
2023/06/28 05:02:25;;;;;;;4.82;2.22;;;;;;;;;;4948913;28;20063;-92
2023/06/28 05:04:51;;;;;;;7.32;2.70;;;;;;;;;;4954103;28;20498;-92
2023/06/28 05:07:17;;;;;;;8.75;2.83;;;;;;;;;;4961843;28;20042;-92
2023/06/28 05:09:44;;;;;;;4.78;2.65;;;;;;;;;;4953652;28;20058;-94
2023/06/28 05:12:10;;;;;;;6.18;2.42;;;;;;;;;;4959431;28;20722;-91
2023/06/28 05:17:38;;;;;;;7.07;2.28;;;;;;;;;;4943595;28;20071;-91
2023/06/28 05:20:05;;;;;;;9.27;2.13;;;;;;;;;;4954107;28;20461;-92
2023/06/28 05:22:35;;;;;;;6.68;2.55;;;;;;;;;;4955468;28;20557;-91
2023/06/28 05:25:01;;;;;;;8.25;2.50;;;;;;;;;;4972143;28;20038;-92
2023/06/28 05:27:41;;;;;;;;;;;;;;;;;;;;;
2023/06/28 05:30:11;;;;;;;6.22;2.63;;;;;;;;;;4966695;28;20126;-92
2023/06/28 05:32:46;;;;;;;8.57;2.75;;;;;;;;;;4949802;28;20759;-93
2023/06/28 05:35:12;;;;;;;4.33;2.70;;;;;;;;;;4951278;28;20035;-91
2023/06/28 05:37:40;;;;;;;5.90;2.72;;;;;;;;;;4954758;28;20034;-92
2023/06/28 05:40:07;;;;;;;12.35;3.25;;;;;;;;;;4953612;28;20217;-92
2023/06/28 05:42:40;;;;;;;6.22;3.20;;;;;;;;;;4987957;28;20557;-92
2023/06/28 05:45:18;;;;;;;6.55;2.55;;;;;;;;;;4969041;28;20066;-92
2023/06/28 05:47:49;;;;;;;5.05;2.85;;;;;;;;;;4965311;28;20034;-92
2023/06/28 05:53:10;;;;;;;11.45;2.83;;;;;;;;;;4984880;28;20517;-92
2023/06/28 05:55:37;;;;;;;7.20;2.80;;;;;;;;;;4965900;28;20034;-92
2023/06/28 05:58:08;;;;;;;6.53;3.20;;;;;;;;;;4972493;28;20042;-93
2023/06/28 06:00:46;;;;;;;8.45;3.05;;;;;;;;;;4996931;28;20030;-92
2023/06/28 06:03:14;;;;;;;8.70;2.97;;;;;;;;;;4977217;28;20041;-92
2023/06/28 06:05:46;;;;;;;8.68;3.25;;;;;;;;;;4982365;28;20026;-92
2023/06/28 06:08:16;;;;;;;10.45;2.72;;;;;;;;;;4977096;28;20046;-92
2023/06/28 06:10:47;;;;;;;16.55;3.53;;;;;;;;;;4975316;28;20045;-92
2023/06/28 06:13:13;;;;;;;8.40;3.25;;;;;;;;;;4955904;28;20125;-92
2023/06/28 06:15:47;;;;;;;8.93;3.17;;;;;;;;;;4961848;28;20073;-92
2023/06/28 06:18:14;;;;;;;17.55;3.20;;;;;;;;;;4978395;28;20023;-91
2023/06/28 06:20:40;;;;;;;7.50;2.70;;;;;;;;;;4975718;28;20089;-93
2023/06/28 06:23:07;;;;;;;7.50;3.08;;;;;;;;;;4956726;28;20050;-92
2023/06/28 06:25:33;;;;;;;5.07;3.05;;;;;;;;;;4970344;28;20266;-92
2023/06/28 06:27:59;;;;;;;10.38;3.50;;;;;;;;;;4965069;28;20092;-92
2023/06/28 06:30:25;;;;;;;5.75;3.20;;;;;;;;;;4957230;28;20062;-93
2023/06/28 06:32:51;;;;;;;9.68;3.05;;;;;;;;;;4961578;28;20117;-92
2023/06/28 06:35:17;;;;;;;10.63;3.45;;;;;;;;;;4959986;28;20133;-92
2023/06/28 06:37:45;;;;;;;6.70;3.00;;;;;;;;;;4954783;28;20117;-93
2023/06/28 06:40:23;;;;;;;10.82;3.50;;;;;;;;;;4953921;28;20501;-93
2023/06/28 06:43:02;;;;;;;7.78;3.58;;;;;;;;;;5000219;28;20096;-93
2023/06/28 06:45:28;;;;;;;9.98;3.28;;;;;;;;;;4954875;28;20567;-93
2023/06/28 06:47:55;;;;;;;13.80;3.47;;;;;;;;;;4959687;28;20034;-92
2023/06/28 06:50:21;;;;;;;11.30;4.90;;;;;;;;;;4948049;28;20059;-93
2023/06/28 06:52:56;;;;;;;10.63;4.28;;;;;;;;;;4966790;28;20035;-93
2023/06/28 06:55:25;;;;;;;10.65;3.55;;;;;;;;;;4968883;28;20031;-93
2023/06/28 06:57:51;;;;;;;11.48;3.78;;;;;;;;;;4954136;28;20045;-91
2023/06/28 07:00:18;;;;;;;11.85;4.60;;;;;;;;;;4969721;28;20398;-93
2023/06/28 07:02:44;;;;;;;9.48;4.78;;;;;;;;;;4955350;28;20113;-93
2023/06/28 07:05:11;;;;;;;8.10;4.32;;;;;;;;;;4961378;28;20034;-93
2023/06/28 07:07:37;;;;;;;8.50;4.20;;;;;;;;;;4956473;28;20132;-92
2023/06/28 07:10:22;;;;;;;15.13;5.95;;;;;;;;;;4953970;28;20493;-93
2023/06/28 07:12:48;;;;;;;17.02;5.07;;;;;;;;;;4973322;28;20065;-91
2023/06/28 07:15:17;;;;;;;11.40;4.82;;;;;;;;;;4953107;28;20042;-91
2023/06/28 07:17:59;;;;;;;14.10;6.65;;;;;;;;;;4952977;28;20541;-92
2023/06/28 07:20:29;;;;;;;13.90;5.75;;;;;;;;;;4954974;28;20069;-90
2023/06/28 07:23:18;;;;;;;14.52;6.20;;;;;;;;;;4983506;28;20045;-92
2023/06/28 07:25:47;;;;;;;16.58;6.22;;;;;;;;;;4983780;28;20344;-91
2023/06/28 07:28:14;;;;;;;24.00;6.72;;;;;;;;;;4970256;28;20136;-91
2023/06/28 07:30:53;;;;;;;17.92;6.35;;;;;;;;;;4956015;28;20030;-91
2023/06/28 07:33:21;;;;;;;12.15;6.10;;;;;;;;;;4982431;28;20050;-92
2023/06/28 07:35:51;;;;;;;12.65;6.38;;;;;;;;;;4954153;28;20030;-92
2023/06/28 07:38:19;;;;;;;12.25;5.05;;;;;;;;;;4976075;28;20045;-92
2023/06/28 07:40:46;;;;;;;15.30;6.25;;;;;;;;;;4987017;28;20026;-92
2023/06/28 07:43:14;;;;;;;14.80;6.00;;;;;;;;;;4976900;28;20696;-93
2023/06/28 07:45:52;;;;;;;12.55;6.07;;;;;;;;;;4976972;28;20447;-92
2023/06/28 07:48:19;;;;;;;15.38;5.95;;;;;;;;;;4981980;28;20486;-92
2023/06/28 07:50:53;;;;;;;10.73;5.68;;;;;;;;;;4989499;28;20025;-92
2023/06/28 07:53:22;;;;;;;11.38;6.47;;;;;;;;;;4972199;28;20050;-92
2023/06/28 07:55:49;;;;;;;17.27;6.43;;;;;;;;;;4961997;28;20022;-92
2023/06/28 07:58:15;;;;;;;11.15;5.55;;;;;;;;;;4958632;28;20042;-93
2023/06/28 08:00:42;;;;;;;13.88;6.63;;;;;;;;;;4993197;28;20109;-93
2023/06/28 08:03:09;;;;;;;13.65;6.15;;;;;;;;;;4982242;28;20541;-93
2023/06/28 08:05:35;;;;;;;13.07;6.15;;;;;;;;;;4976434;28;20039;-93
2023/06/28 08:08:01;;;;;;;17.35;6.35;;;;;;;;;;4957712;28;20066;-93
2023/06/28 08:10:28;;;;;;;19.35;7.10;;;;;;;;;;4959802;28;20052;-93
2023/06/28 08:13:14;;;;;;;18.67;6.82;;;;;;;;;;4959765;28;20069;-93
2023/06/28 08:15:42;;;;;;;15.65;6.28;;;;;;;;;;4961213;28;20038;-93
2023/06/28 08:18:09;;;;;;;11.00;6.75;;;;;;;;;;4962323;28;20042;-94
2023/06/28 08:20:36;;;;;;;13.82;6.85;;;;;;;;;;4955912;28;20034;-93
2023/06/28 08:23:03;;;;;;;14.48;6.80;;;;;;;;;;4982140;28;20041;-94
2023/06/28 08:25:31;;;;;;;12.10;5.97;;;;;;;;;;4961305;28;20030;-93
2023/06/28 08:28:04;;;;;;;17.05;7.28;;;;;;;;;;4982062;28;20026;-93
2023/06/28 08:30:30;;;;;;;15.35;7.40;;;;;;;;;;4958392;28;20674;-94
2023/06/28 08:32:58;;;;;;;13.95;5.95;;;;;;;;;;4975181;28;20548;-94
2023/06/28 08:35:30;;;;;;;17.17;6.05;;;;;;;;;;4959717;28;20038;-94
2023/06/28 08:37:59;;;;;;;12.27;5.60;;;;;;;;;;4957497;28;20031;-92
2023/06/28 08:40:29;;;;;;;15.80;6.13;;;;;;;;;;4973620;28;20033;-92
2023/06/28 08:43:01;;;;;;;14.90;5.70;;;;;;;;;;4964506;28;20038;-92
2023/06/28 08:45:27;;;;;;;8.80;5.03;;;;;;;;;;4989149;28;20379;-93
2023/06/28 08:47:55;;;;;;;11.32;5.25;;;;;;;;;;4987416;28;20041;-93
2023/06/28 08:50:21;;;;;;;13.75;5.43;;;;;;;;;;4974725;28;20394;-93
2023/06/28 08:52:47;;;;;;;17.73;6.38;;;;;;;;;;4996036;28;20160;-92
2023/06/28 08:55:14;;;;;;;15.90;6.50;;;;;;;;;;4972346;28;20092;-95
2023/06/28 08:57:41;;;;;;;12.48;6.13;;;;;;;;;;4975986;28;20390;-95
2023/06/28 09:00:10;;;;;;;14.25;7.20;;;;;;;;;;4978236;28;20049;-94
2023/06/28 09:02:37;;;;;;;12.75;5.90;;;;;;;;;;4989668;28;20026;-94
2023/06/28 09:05:03;;;;;;;18.25;6.57;;;;;;;;;;4998437;28;20061;-94
2023/06/28 09:07:31;;;;;;;21.55;6.00;;;;;;;;;;4977176;28;20026;-94
2023/06/28 09:09:57;;;;;;;15.10;7.13;;;;;;;;;;4996192;28;20038;-93
2023/06/28 09:12:25;;;;;;;18.00;7.05;;;;;;;;;;4990654;28;20037;-94
2023/06/28 09:15:12;;;;;;;14.43;7.28;;;;;;;;;;4992753;28;20068;-94
2023/06/28 09:17:38;;;;;;;13.88;6.57;;;;;;;;;;5011011;28;20026;-94
2023/06/28 09:20:21;;;;;;;25.95;7.78;;;;;;;;;;4991662;28;20034;-94
2023/06/28 09:22:55;;;;;;;16.45;7.13;;;;;;;;;;5005315;28;20116;-94
2023/06/28 09:25:45;;;;;;;20.40;7.10;;;;;;;;;;4992778;28;20214;-94
2023/06/28 09:28:12;;;;;;;15.02;6.35;;;;;;;;;;4980865;28;20088;-93
2023/06/28 09:30:38;;;;;;;22.63;8.10;;;;;;;;;;4974803;28;20478;-93
2023/06/28 09:33:05;;;;;;;14.38;6.65;;;;;;;;;;4997600;28;20034;-93
2023/06/28 09:35:31;;;;;;;17.45;6.93;;;;;;;;;;4992975;28;20058;-92
2023/06/28 09:37:58;;;;;;;19.45;8.70;;;;;;;;;;4999696;28;20050;-92
2023/06/28 09:40:25;;;;;;;14.50;8.40;;;;;;;;;;4997349;28;20500;-92
2023/06/28 09:42:53;;;;;;;25.77;7.53;;;;;;;;;;5003376;28;20036;-92
2023/06/28 09:45:26;;;;;;;17.02;8.25;;;;;;;;;;4977394;28;20045;-92
2023/06/28 09:47:57;;;;;;;18.75;8.93;;;;;;;;;;4976898;28;20060;-93
2023/06/28 09:50:37;;;;;;;21.05;8.20;;;;;;;;;;4997632;28;20351;-93
2023/06/28 09:53:13;;;;;;;19.98;9.38;;;;;;;;;;4995896;28;20034;-93
2023/06/28 09:55:53;;;;;;;;;;;;;;;;;;4993365;28;20026;-93
2023/06/28 09:58:20;;;;;;;18.90;8.15;;;;;;;;;;4994976;28;19925;-92
2023/06/28 10:00:52;;;;;;;21.52;10.15;;;;;;;;;;4991108;28;20083;-90
2023/06/28 10:03:19;;;;;;;18.40;9.77;;;;;;;;;;4979508;28;20040;-92
2023/06/28 10:05:45;;;;;;;17.30;10.15;;;;;;;;;;4974618;28;20034;-92
2023/06/28 10:08:16;;;;;;;23.25;10.45;;;;;;;;;;5006880;28;20091;-92
2023/06/28 10:10:43;;;;;;;26.45;10.60;;;;;;;;;;4988890;28;20030;-93
2023/06/28 10:13:14;;;;;;;22.40;10.18;;;;;;;;;;4995895;28;20065;-92
2023/06/28 10:15:59;;;;;;;26.60;10.55;;;;;;;;;;4995371;28;20033;-92
2023/06/28 10:18:29;;;;;;;15.80;10.00;;;;;;;;;;4994195;28;20026;-92
2023/06/28 10:20:55;;;;;;;21.60;9.02;;;;;;;;;;5011970;28;20030;-93
2023/06/28 10:23:43;;;;;;;20.05;9.85;;;;;;;;;;4995238;28;20064;-93
2023/06/28 10:26:09;;;;;;;21.90;10.98;;;;;;;;;;4996754;28;20466;-93
2023/06/28 10:28:36;;;;;;;23.33;10.90;;;;;;;;;;4987357;28;20091;-93
2023/06/28 10:31:06;;;;;;;21.27;11.00;;;;;;;;;;4996852;28;20068;-94
2023/06/28 10:33:33;;;;;;;20.92;11.68;;;;;;;;;;4997028;28;20029;-93
2023/06/28 10:36:03;;;;;;;16.02;9.65;;;;;;;;;;4984943;28;20046;-93
2023/06/28 10:38:34;;;;;;;19.77;9.75;;;;;;;;;;4978636;28;20037;-94
2023/06/28 10:41:04;;;;;;;22.92;10.85;;;;;;;;;;5007143;28;20041;-93
2023/06/28 10:43:53;;;;;;;21.83;10.80;;;;;;;;;;4996535;28;20118;-93
2023/06/28 10:46:27;;;;;;;22.88;10.73;;;;;;;;;;4984247;28;20611;-93
2023/06/28 10:48:59;;;;;;;21.40;10.77;;;;;;;;;;4978027;28;20044;-93
2023/06/28 10:51:28;;;;;;;18.90;10.93;;;;;;;;;;4993144;28;20219;-93
2023/06/28 10:54:06;;;;;;;21.00;9.95;;;;;;;;;;4994815;28;20032;-93
2023/06/28 10:57:00;;;;;;;21.60;9.88;;;;;;;;;;4992412;28;20061;-93
2023/06/28 10:59:27;;;;;;;28.85;10.52;;;;;;;;;;4991632;28;20041;-92
2023/06/28 11:01:54;;;;;;;21.65;11.45;;;;;;;;;;4991667;28;20022;-93
2023/06/28 11:04:30;;;;;;;27.23;12.77;;;;;;;;;;4979195;28;20049;-93
2023/06/28 11:07:08;;;;;;;17.38;10.40;;;;;;;;;;4993616;28;20379;-94
2023/06/28 11:09:35;;;;;;;25.95;10.27;;;;;;;;;;5004527;28;20463;-93
2023/06/28 11:12:07;;;;;;;27.75;11.70;;;;;;;;;;4995540;28;20225;-93
2023/06/28 11:14:43;;;;;;;27.50;10.80;;;;;;;;;;4994333;28;20044;-93
2023/06/28 11:17:14;;;;;;;21.10;10.82;;;;;;;;;;4991661;28;20049;-92
2023/06/28 11:19:49;;;;;;;26.55;11.27;;;;;;;;;;5011405;28;20029;-93
2023/06/28 11:22:26;;;;;;;;;;;;;;;;;;4980977;28;20042;-93
2023/06/28 11:24:55;;;;;;;25.97;11.27;;;;;;;;;;4992051;28;19909;-93
2023/06/28 11:27:25;;;;;;;29.33;11.38;;;;;;;;;;4998789;28;20053;-92
2023/06/28 11:29:57;;;;;;;22.08;11.00;;;;;;;;;;4982403;28;20352;-93
2023/06/28 11:32:25;;;;;;;21.70;10.85;;;;;;;;;;4993533;28;20470;-92
2023/06/28 11:34:53;;;;;;;23.08;11.32;;;;;;;;;;5003271;28;20036;-92
2023/06/28 11:37:21;;;;;;;22.55;11.63;;;;;;;;;;5006668;28;20022;-92
2023/06/28 11:39:48;;;;;;;24.45;12.07;;;;;;;;;;4996813;28;20441;-93
2023/06/28 11:42:16;;;;;;;23.73;12.07;;;;;;;;;;5007583;28;20034;-93
2023/06/28 11:44:47;;;;;;;28.80;11.60;;;;;;;;;;4990063;28;20245;-93
2023/06/28 11:47:14;;;;;;;23.67;13.68;;;;;;;;;;4973228;28;20030;-92
2023/06/28 11:49:41;;;;;;;22.15;12.18;;;;;;;;;;4958340;28;20030;-92
2023/06/28 11:52:08;;;;;;;24.88;12.02;;;;;;;;;;4960948;28;20039;-92
2023/06/28 11:54:42;;;;;;;21.52;11.60;;;;;;;;;;4961709;28;20026;-92
2023/06/28 11:57:15;;;;;;;19.42;11.52;;;;;;;;;;4948349;28;20074;-92
2023/06/28 11:59:57;;;;;;;23.70;11.73;;;;;;;;;;4979094;28;20605;-93
2023/06/28 12:02:23;;;;;;;24.33;12.90;;;;;;;;;;4972133;28;20030;-93
2023/06/28 12:04:58;;;;;;;27.10;13.68;;;;;;;;;;4962910;28;20043;-93
2023/06/28 12:07:24;;;;;;;31.55;13.30;;;;;;;;;;4960543;28;20334;-92
2023/06/28 12:09:55;;;;;;;27.10;11.93;;;;;;;;;;4980436;28;20048;-92
2023/06/28 12:12:22;;;;;;;31.00;14.00;;;;;;;;;;4976284;28;20034;-92
2023/06/28 12:14:50;;;;;;;30.38;14.80;;;;;;;;;;4960782;28;20471;-92
2023/06/28 12:17:21;;;;;;;25.02;14.15;;;;;;;;;;4977785;28;20367;-91
2023/06/28 12:19:47;;;;;;;24.02;13.02;;;;;;;;;;4958853;28;20050;-91
2023/06/28 12:22:13;;;;;;;28.15;15.50;;;;;;;;;;4977293;28;20117;-92
2023/06/28 12:24:41;;;;;;;29.98;13.45;;;;;;;;;;4961772;28;20042;-92
2023/06/28 12:27:11;;;;;;;30.10;15.88;;;;;;;;;;4979578;28;20537;-93
2023/06/28 12:29:37;;;;;;;31.73;15.60;;;;;;;;;;4965298;28;20432;-92
2023/06/28 12:32:08;;;;;;;27.58;13.77;;;;;;;;;;4978477;28;20038;-92
2023/06/28 12:34:38;;;;;;;22.98;14.35;;;;;;;;;;4980043;28;20046;-93
2023/06/28 12:37:55;;;;;;;25.60;13.50;;;;;;;;;;4977121;28;20081;-93
2023/06/28 12:40:09;;;;;;;30.65;14.05;;;;;;;;;;4978816;28;20046;-93
2023/06/28 12:43:11;;;;;;;26.23;13.82;;;;;;;;;;4976726;28;20034;-93
2023/06/28 12:45:53;;;;;;;24.30;14.65;;;;;;;;;;4936190;28;20137;-92
2023/06/28 12:48:21;;;;;;;24.63;13.23;;;;;;;;;;4955329;28;20664;-93
2023/06/28 12:50:52;;;;;;;28.02;14.27;;;;;;;;;;4968380;28;20490;-93
2023/06/28 12:53:18;;;;;;;25.73;14.10;;;;;;;;;;4958229;28;20477;-92
2023/06/28 12:55:54;;;;;;;23.95;13.80;;;;;;;;;;4976254;28;20480;-92
2023/06/28 12:58:23;;;;;;;27.15;14.15;;;;;;;;;;4959697;28;20042;-92
2023/06/28 13:00:50;;;;;;;25.15;13.68;;;;;;;;;;4952061;28;20032;-93
2023/06/28 13:03:16;;;;;;;30.45;13.20;;;;;;;;;;4971888;28;20042;-92
2023/06/28 13:05:42;;;;;;;26.02;13.70;;;;;;;;;;4940538;28;20050;-93
2023/06/28 13:08:17;;;;;;;21.73;12.50;;;;;;;;;;4962062;28;20029;-93
2023/06/28 13:10:45;;;;;;;25.92;12.82;;;;;;;;;;4962138;28;20089;-93
2023/06/28 13:13:22;;;;;;;24.42;13.35;;;;;;;;;;4955432;28;20027;-93
2023/06/28 13:15:51;;;;;;;20.60;11.90;;;;;;;;;;4962836;28;20023;-92
2023/06/28 13:18:17;;;;;;;20.80;12.57;;;;;;;;;;4940978;28;20112;-92
2023/06/28 13:21:04;;;;;;;19.42;11.30;;;;;;;;;;4937261;28;20086;-92
2023/06/28 13:23:30;;;;;;;23.70;12.63;;;;;;;;;;4951085;28;20492;-94
2023/06/28 13:25:58;;;;;;;26.35;12.70;;;;;;;;;;4938083;28;20109;-93
2023/06/28 13:28:26;;;;;;;26.75;13.40;;;;;;;;;;4941118;28;20554;-92
2023/06/28 13:31:10;;;;;;;28.88;14.85;;;;;;;;;;4933012;28;20034;-92
2023/06/28 13:33:43;;;;;;;26.30;14.63;;;;;;;;;;4955427;28;20410;-92
2023/06/28 13:36:10;;;;;;;32.97;16.42;;;;;;;;;;4954378;28;20038;-93
2023/06/28 13:38:46;;;;;;;27.38;15.43;;;;;;;;;;4936399;28;20045;-92
2023/06/28 13:41:12;;;;;;;26.25;13.93;;;;;;;;;;4948568;28;20039;-92
2023/06/28 13:43:38;;;;;;;27.95;14.60;;;;;;;;;;4936844;28;20118;-94
2023/06/28 13:46:05;;;;;;;27.13;13.63;;;;;;;;;;4953353;28;20038;-92
2023/06/28 13:48:32;;;;;;;29.63;15.68;;;;;;;;;;4969271;28;20077;-92
2023/06/28 13:51:04;;;;;;;31.15;16.38;;;;;;;;;;4987874;28;20038;-92
2023/06/28 13:53:30;;;;;;;28.60;16.77;;;;;;;;;;4968111;28;20361;-92
2023/06/28 13:55:58;;;;;;;28.25;14.68;;;;;;;;;;4978342;28;20324;-92
2023/06/28 13:58:26;;;;;;;30.35;16.08;;;;;;;;;;4973307;28;20041;-93
2023/06/28 14:00:56;;;;;;;36.97;18.05;;;;;;;;;;4957946;28;20018;-91
2023/06/28 14:03:23;;;;;;;35.13;17.08;;;;;;;;;;4974936;28;20026;-93
2023/06/28 14:05:55;;;;;;;32.33;17.08;;;;;;;;;;4970757;28;20050;-92
2023/06/28 14:08:21;;;;;;;37.95;18.35;;;;;;;;;;4990399;28;20105;-92
2023/06/28 14:10:57;;;;;;;30.30;15.95;;;;;;;;;;4975468;28;20030;-93
2023/06/28 14:13:23;;;;;;;33.70;17.95;;;;;;;;;;4965362;28;20045;-93
2023/06/28 14:15:49;;;;;;;35.40;18.63;;;;;;;;;;4957354;28;20026;-94
2023/06/28 14:18:15;;;;;;;36.67;17.45;;;;;;;;;;4963224;28;20077;-93
2023/06/28 14:20:42;;;;;;;31.73;18.45;;;;;;;;;;4961852;28;20469;-93
2023/06/28 14:23:19;;;;;;;42.13;18.75;;;;;;;;;;4955779;28;20041;-93
2023/06/28 14:25:48;;;;;;;37.22;17.83;;;;;;;;;;4957095;28;20041;-93
2023/06/28 14:28:15;;;;;;;40.92;19.10;;;;;;;;;;4956932;28;20034;-92
2023/06/28 14:30:42;;;;;;;38.30;18.80;;;;;;;;;;4975304;28;20089;-92
2023/06/28 14:33:08;;;;;;;38.25;19.80;;;;;;;;;;4960166;28;20030;-94
2023/06/28 14:35:41;;;;;;;36.50;18.05;;;;;;;;;;4973483;28;20042;-94
2023/06/28 14:38:08;;;;;;;39.22;19.75;;;;;;;;;;4958571;28;20037;-95
2023/06/28 14:40:38;;;;;;;38.85;20.90;;;;;;;;;;4971635;28;20037;-93
2023/06/28 14:43:08;;;;;;;38.17;20.77;;;;;;;;;;4955441;28;20025;-94
2023/06/28 14:45:34;;;;;;;39.22;20.35;;;;;;;;;;4975417;28;20524;-94
2023/06/28 14:48:04;;;;;;;39.38;20.58;;;;;;;;;;4956839;28;20058;-93
2023/06/28 14:50:30;;;;;;;36.33;19.60;;;;;;;;;;4948893;28;20074;-93
2023/06/28 14:52:57;;;;;;;42.00;21.55;;;;;;;;;;4985781;28;20034;-92